createdAt,value
2023-01-29T00:03:16.479Z,1.23
2023-01-29T00:08:18.103Z,1.20
2023-01-29T00:13:19.839Z,1.26
2023-01-29T00:18:21.658Z,1.15
2023-01-29T00:23:23.808Z,1.25
2023-01-29T00:28:25.373Z,1.31
2023-01-29T00:33:29.151Z,1.34
2023-01-29T00:38:30.803Z,1.15
2023-01-29T00:43:50.729Z,1.22
2023-01-29T00:48:52.278Z,1.34
2023-01-29T00:53:58.236Z,0.92
2023-01-29T00:59:00.047Z,1.21
2023-01-29T01:04:01.684Z,1.19
2023-01-29T01:09:22.273Z,1.16
2023-01-29T01:14:23.848Z,1.08
2023-01-29T01:19:25.439Z,1.26
2023-01-29T01:24:27.140Z,1.26
2023-01-29T01:29:28.860Z,1.18
2023-01-29T01:34:30.565Z,1.31
2023-01-29T01:39:32.153Z,1.19
2023-01-29T01:44:57.061Z,1.24
2023-01-29T01:50:03.930Z,1.25
2023-01-29T01:55:06.906Z,1.28
2023-01-29T02:00:12.924Z,1.26
2023-01-29T02:05:35.729Z,1.12
2023-01-29T02:10:42.482Z,1.05
2023-01-29T02:15:50.182Z,1.03
2023-01-29T02:21:07.507Z,1.00
2023-01-29T02:26:14.857Z,1.06
2023-01-29T02:31:30.156Z,0.74
2023-01-29T02:36:56.668Z,0.79
2023-01-29T02:42:02.389Z,0.75
2023-01-29T02:47:13.929Z,0.67
2023-01-29T02:52:18.674Z,0.69
2023-01-29T02:57:23.919Z,0.69
2023-01-29T03:03:00.644Z,0.57
2023-01-29T03:08:06.936Z,0.56
2023-01-29T03:13:22.143Z,0.54
2023-01-29T03:18:27.707Z,0.62
2023-01-29T03:23:54.285Z,0.70
2023-01-29T03:29:14.669Z,0.84
2023-01-29T03:34:28.488Z,0.63
2023-01-29T03:39:30.498Z,0.59
2023-01-29T03:44:37.592Z,0.64
2023-01-29T03:49:43.691Z,0.52
2023-01-29T03:55:06.962Z,0.45
2023-01-29T04:00:11.375Z,0.47
2023-01-29T04:05:30.629Z,0.45
2023-01-29T04:11:00.198Z,0.34
2023-01-29T04:16:04.656Z,0.33
2023-01-29T04:21:31.824Z,0.35
2023-01-29T04:27:07.465Z,0.37
2023-01-29T04:32:16.155Z,0.27
2023-01-29T04:37:33.578Z,0.29
2023-01-29T04:42:47.952Z,0.28
2023-01-29T04:48:25.143Z,0.04
2023-01-29T04:53:29.535Z,0.07
2023-01-29T04:58:36.088Z,0.07
2023-01-29T05:03:37.985Z,0.13
2023-01-29T05:08:40.283Z,0.06
2023-01-29T05:13:43.144Z,0.09
2023-01-29T05:18:45.016Z,-0.17
2023-01-29T05:23:59.268Z,0.14
2023-01-29T05:29:00.840Z,-0.02
2023-01-29T05:34:02.401Z,-0.11
2023-01-29T05:39:04.248Z,-0.15
2023-01-29T05:44:05.988Z,-0.15
2023-01-29T05:49:07.606Z,-0.14
2023-01-29T05:54:12.394Z,-0.08
2023-01-29T05:59:15.817Z,-0.10
2023-01-29T06:04:17.409Z,-0.01
2023-01-29T06:09:19.010Z,-0.26
2023-01-29T06:14:20.616Z,-0.03
2023-01-29T06:19:22.257Z,-0.01
2023-01-29T06:24:23.907Z,-0.06
2023-01-29T06:29:25.482Z,0.09
2023-01-29T06:34:27.030Z,0.17
2023-01-29T06:39:28.591Z,0.15
2023-01-29T06:44:30.146Z,0.26
2023-01-29T06:49:31.946Z,0.24
2023-01-29T06:54:33.494Z,0.24
2023-01-29T06:59:35.055Z,0.38
2023-01-29T07:04:37.793Z,0.24
2023-01-29T07:09:43.179Z,0.21
2023-01-29T07:14:44.717Z,0.32
2023-01-29T07:19:46.286Z,0.32
2023-01-29T07:24:48.422Z,0.43
2023-01-29T07:29:50.054Z,0.49
2023-01-29T07:34:51.597Z,0.51
2023-01-29T07:39:53.255Z,0.54
2023-01-29T07:44:54.840Z,0.25
2023-01-29T07:49:56.453Z,0.64
2023-01-29T07:54:58.141Z,0.62
2023-01-29T07:59:59.722Z,0.88
2023-01-29T08:05:01.380Z,0.83
2023-01-29T08:10:03.117Z,1.06
2023-01-29T08:15:05.010Z,1.12
2023-01-29T08:20:07.332Z,0.98
2023-01-29T08:25:09.259Z,1.31
2023-01-29T08:30:11.571Z,1.16
2023-01-29T08:35:13.280Z,1.18
2023-01-29T08:40:14.998Z,1.16
2023-01-29T08:45:17.398Z,1.24
2023-01-29T08:50:19.613Z,1.12
2023-01-29T08:55:21.364Z,1.22
2023-01-29T09:00:23.031Z,1.11
2023-01-29T09:05:24.601Z,1.46
2023-01-29T09:10:26.745Z,1.50
2023-01-29T09:15:28.439Z,1.44
2023-01-29T09:20:30.065Z,1.64
2023-01-29T09:25:31.655Z,1.75
2023-01-29T09:30:34.610Z,1.64
2023-01-29T09:35:36.344Z,1.60
2023-01-29T09:40:50.479Z,1.74
2023-01-29T09:46:24.167Z,1.75
2023-01-29T09:51:30.585Z,1.85
2023-01-29T09:56:32.224Z,1.93
2023-01-29T10:01:42.575Z,1.92
2023-01-29T10:06:47.255Z,1.92
2023-01-29T10:12:05.353Z,2.05
2023-01-29T10:17:31.767Z,2.12
2023-01-29T10:23:11.200Z,1.99
2023-01-29T10:28:43.408Z,2.16
2023-01-29T10:34:02.101Z,2.20
2023-01-29T10:39:04.485Z,2.25
2023-01-29T10:44:14.584Z,2.41
2023-01-29T10:49:41.246Z,2.28
2023-01-29T10:54:58.024Z,2.31
2023-01-29T11:00:07.810Z,2.40
2023-01-29T11:05:32.045Z,2.36
2023-01-29T11:10:58.539Z,2.43
2023-01-29T11:16:00.147Z,2.56
2023-01-29T11:21:03.801Z,2.55
2023-01-29T11:26:07.063Z,2.67
2023-01-29T11:31:38.056Z,2.70
2023-01-29T11:36:39.981Z,2.77
2023-01-29T11:42:01.523Z,2.46
2023-01-29T11:47:15.905Z,2.64
2023-01-29T11:52:19.607Z,2.80
2023-01-29T11:57:49.111Z,2.77
2023-01-29T12:02:59.380Z,2.76
2023-01-29T12:08:02.297Z,2.92
2023-01-29T12:13:10.707Z,2.73
2023-01-29T12:18:27.210Z,2.89
2023-01-29T12:23:50.282Z,2.81
2023-01-29T12:29:16.496Z,2.93
2023-01-29T12:34:38.279Z,3.01
2023-01-29T12:39:39.935Z,2.90
2023-01-29T12:44:47.266Z,3.09
2023-01-29T12:49:52.612Z,3.00
2023-01-29T12:55:01.691Z,3.14
2023-01-29T13:00:06.796Z,3.22
2023-01-29T13:05:17.153Z,2.98
2023-01-29T13:10:23.633Z,2.98
2023-01-29T13:15:45.504Z,3.36
2023-01-29T13:20:48.828Z,3.29
2023-01-29T13:25:52.258Z,3.29
2023-01-29T13:31:28.168Z,3.19
2023-01-29T13:36:31.504Z,2.86
2023-01-29T13:41:39.899Z,3.00
2023-01-29T13:46:41.832Z,3.02
2023-01-29T13:51:43.491Z,2.88
2023-01-29T13:57:01.744Z,3.13
2023-01-29T14:02:04.493Z,3.21
2023-01-29T14:07:38.805Z,3.18
2023-01-29T14:12:42.029Z,3.06
2023-01-29T14:18:14.841Z,3.08
2023-01-29T14:23:41.225Z,3.24
2023-01-29T14:28:42.891Z,3.38
2023-01-29T14:33:45.334Z,3.28
2023-01-29T14:38:49.682Z,3.55
2023-01-29T14:43:51.952Z,3.40
2023-01-29T14:48:53.624Z,3.24
2023-01-29T14:54:16.704Z,3.23
2023-01-29T14:59:29.066Z,3.27
2023-01-29T15:04:40.334Z,3.29
2023-01-29T15:10:20.902Z,3.22
2023-01-29T15:15:29.621Z,3.12
2023-01-29T15:20:34.158Z,3.02
2023-01-29T15:25:37.345Z,2.91
2023-01-29T15:30:39.285Z,3.03
2023-01-29T15:35:42.002Z,3.11
2023-01-29T15:40:57.779Z,3.05
2023-01-29T15:46:01.893Z,3.11
2023-01-29T15:51:10.351Z,2.99
2023-01-29T15:56:12.993Z,2.65
2023-01-29T16:01:15.296Z,2.98
2023-01-29T16:06:16.981Z,2.92
2023-01-29T16:11:19.593Z,2.79
2023-01-29T16:16:25.085Z,2.89
2023-01-29T16:21:33.678Z,2.80
2023-01-29T16:26:37.494Z,2.88
2023-01-29T16:31:40.239Z,2.85
2023-01-29T16:36:46.623Z,2.94
2023-01-29T16:42:20.204Z,2.81
2023-01-29T16:47:44.987Z,2.84
2023-01-29T16:53:00.806Z,2.63
2023-01-29T16:58:13.359Z,2.69
2023-01-29T17:03:15.486Z,2.63
2023-01-29T17:08:30.865Z,2.56
2023-01-29T17:13:36.809Z,2.38
2023-01-29T17:18:38.928Z,2.51
2023-01-29T17:23:40.494Z,2.38
2023-01-29T17:28:42.414Z,2.58
2023-01-29T17:33:44.252Z,2.59
2023-01-29T17:38:46.537Z,2.73
2023-01-29T17:43:48.152Z,2.33
2023-01-29T17:48:49.765Z,2.34
2023-01-29T17:53:51.343Z,2.81
2023-01-29T17:58:53.171Z,2.77
2023-01-29T18:03:54.867Z,2.68
2023-01-29T18:08:56.873Z,2.63
2023-01-29T18:13:58.753Z,2.63
2023-01-29T18:19:13.426Z,2.69
2023-01-29T18:24:15.306Z,2.53
2023-01-29T18:29:16.966Z,2.56
2023-01-29T18:34:18.579Z,2.19
2023-01-29T18:39:20.218Z,2.00
2023-01-29T18:44:21.821Z,2.47
2023-01-29T18:49:23.447Z,2.50
2023-01-29T18:54:25.087Z,2.66
2023-01-29T18:59:26.708Z,2.15
2023-01-29T19:04:28.300Z,2.08
2023-01-29T19:09:29.884Z,2.03
2023-01-29T19:14:31.519Z,2.16
2023-01-29T19:19:33.132Z,2.09
2023-01-29T19:24:38.800Z,1.98
2023-01-29T19:29:40.377Z,2.01
2023-01-29T19:34:41.933Z,2.11
2023-01-29T19:39:43.479Z,1.98
2023-01-29T19:44:45.427Z,1.88
2023-01-29T19:49:47.055Z,1.91
2023-01-29T19:54:48.810Z,1.91
2023-01-29T19:59:50.358Z,1.85
2023-01-29T20:04:52.251Z,1.75
2023-01-29T20:09:53.791Z,1.74
2023-01-29T20:14:55.374Z,2.10
2023-01-29T20:19:56.940Z,2.33
2023-01-29T20:24:58.715Z,1.76
2023-01-29T20:30:00.329Z,1.56
2023-01-29T20:35:02.130Z,1.57
2023-01-29T20:40:04.046Z,1.65
2023-01-29T20:45:06.297Z,1.61
2023-01-29T20:50:10.257Z,1.65
2023-01-29T20:55:12.664Z,1.30
2023-01-29T21:00:15.541Z,1.79
2023-01-29T21:05:17.202Z,1.60
2023-01-29T21:10:19.112Z,1.37
2023-01-29T21:15:21.042Z,1.57
2023-01-29T21:20:22.745Z,1.43
2023-01-29T21:25:24.617Z,1.45
2023-01-29T21:30:27.004Z,1.47
2023-01-29T21:35:28.613Z,1.48
2023-01-29T21:40:30.529Z,1.69
2023-01-29T21:45:34.204Z,1.75
2023-01-29T21:50:37.299Z,1.36
2023-01-29T21:55:38.947Z,1.81
2023-01-29T22:00:40.575Z,1.75
2023-01-29T22:05:42.287Z,1.69
2023-01-29T22:10:43.888Z,1.16
2023-01-29T22:15:45.462Z,1.46
2023-01-29T22:20:55.877Z,1.70
2023-01-29T22:26:05.085Z,1.86
2023-01-29T22:31:06.717Z,1.63
2023-01-29T22:36:08.733Z,1.72
2023-01-29T22:41:10.702Z,1.52
2023-01-29T22:46:12.499Z,1.77
2023-01-29T22:51:14.108Z,1.65
2023-01-29T22:56:16.269Z,1.77
2023-01-29T23:01:22.396Z,1.76
2023-01-29T23:06:24.065Z,1.59
2023-01-29T23:11:25.649Z,1.45
2023-01-29T23:16:28.490Z,1.65
2023-01-29T23:21:30.206Z,1.36
2023-01-29T23:26:50.426Z,1.79
2023-01-29T23:31:52.037Z,1.72
2023-01-29T23:36:53.631Z,1.37
2023-01-29T23:41:55.224Z,1.68
2023-01-29T23:46:57.454Z,1.58
2023-01-29T23:51:59.087Z,1.59
2023-01-29T23:57:00.693Z,1.83
